Airfield :
LOGIN :

Register | Disclaimer

   EN    FR    IT 

 










Legend :    VFR   Marginal VFR   IFR   Intensive IFR   Very Intensive IFR
Visi :
Ceiling :
>= 8 km
>= 3000ft
5 to 8 km
1000 to 3000 ft
1500m to 5 km
500 to 1000 ft
800 to 1500m
200 to 500 ft
< 800m
< 200 ft
Symbols :   Thunderstorms  Fog  Heavy snow  Heavy precipitations  Wind > 20 kt
SIGMETs :     Misc.  Thunderstorms  Icing  Turbulence  Mountain Waves  Volcanic Ashes






- Airport Elevation : 36 ft
- IATA code : RIX


EVRA - Riga

CURRENT METAR :
  • 251220Z 13006KT 9999 -RASN OVC014 02/M00 Q0995 R18/190095 NOSIG

EXPIRED METARs :
  • 251150Z 13007KT 100V160 9999 BKN014 OVC026 02/M01 Q0995 R18/190095 NOSIG
  • 251120Z 13008KT 9999 SCT014 BKN019 02/M01 Q0996 R18/190095 BECMG BKN014
  • 251050Z 12005KT 100V190 9999 FEW022 BKN047 02/M01 Q0997 R18/190095 NOSIG
  • 251020Z 13007KT 100V160 9999 BKN033 01/M01 Q0997 R18/190095 NOSIG
  • 250950Z 13007KT 100V160 9999 FEW020 BKN034 01/M01 Q0998 R18/190095 NOSIG

TAF AMD TAF EVRA
Valid from the 25 at 12:00 until the 26 at 12:00 UTC


251107Z 2512/2612 14007KT 9999 BKN013
BECMG 2514/2516 BKN005 OVC010
TEMPO 2515/2524 1500 RASN BKN003 OVC005
BECMG 2521/2523 20007KT
BECMG 2602/2604 BKN020



MET'MAP, your aeronautical weather chart ! - Copyright ORBIFLY December 2007 - Disclaimer

ORBIFLY MET'MAP TEAM :

Programming & Development : Alexandra Zaïnal
Concept & original design : Baudouin d'Aumeries
Assistance for programming : Marc-Olivier Méhu
Technical & hardware support : Manuel Goepfert

Contact : metmap@orbifly.com




SOURCES & CREDITS :

   NOAA